createdAt,value
2019-03-21T00:00:49.368Z,1.80
2019-03-21T00:06:26.712Z,1.80
2019-03-21T00:12:05.571Z,1.90
2019-03-21T00:17:35.435Z,1.90
2019-03-21T00:22:43.170Z,2.00
2019-03-21T00:27:50.761Z,2.10
2019-03-21T00:33:18.209Z,2.10
2019-03-21T00:38:24.899Z,2.30
2019-03-21T00:43:30.643Z,2.30
2019-03-21T00:48:36.264Z,2.40
2019-03-21T00:53:41.964Z,2.50
2019-03-21T00:58:48.414Z,2.50
2019-03-21T01:04:28.953Z,2.60
2019-03-21T01:09:36.774Z,2.60
2019-03-21T01:14:45.265Z,2.60
2019-03-21T01:20:17.097Z,2.50
2019-03-21T01:25:39.808Z,2.40
2019-03-21T01:30:48.012Z,2.30
2019-03-21T01:36:15.891Z,2.30
2019-03-21T01:41:22.592Z,2.20
2019-03-21T01:46:29.276Z,2.10
2019-03-21T01:51:35.055Z,2.00
2019-03-21T01:56:41.774Z,1.80
2019-03-21T02:02:10.809Z,1.70
2019-03-21T02:07:17.367Z,1.70
2019-03-21T02:12:23.811Z,1.60
2019-03-21T02:17:30.654Z,1.50
2019-03-21T02:23:00.644Z,1.30
2019-03-21T02:28:07.373Z,1.30
2019-03-21T02:33:41.958Z,1.20
2019-03-21T02:38:48.528Z,1.10
2019-03-21T02:43:55.249Z,1.10
2019-03-21T02:49:01.944Z,1.00
2019-03-21T02:54:08.471Z,1.00
2019-03-21T02:59:15.081Z,1.00
2019-03-21T03:04:21.717Z,0.90
2019-03-21T03:09:28.045Z,0.80
2019-03-21T03:14:33.661Z,0.70
2019-03-21T03:20:14.035Z,0.70
2019-03-21T03:25:22.116Z,0.60
2019-03-21T03:31:01.496Z,0.50
2019-03-21T03:36:07.766Z,0.50
2019-03-21T03:41:35.804Z,0.50
2019-03-21T03:47:03.979Z,0.50
2019-03-21T03:52:10.840Z,0.40
2019-03-21T03:57:17.335Z,0.40
2019-03-21T04:02:24.030Z,0.40
2019-03-21T04:07:31.641Z,0.30
2019-03-21T04:12:37.352Z,0.20
2019-03-21T04:18:04.905Z,0.10
2019-03-21T04:23:12.474Z,0.10
2019-03-21T04:28:18.904Z,0.00
2019-03-21T04:33:26.802Z,0.00
2019-03-21T04:38:32.647Z,0.00
2019-03-21T04:43:38.188Z,0.00
2019-03-21T04:48:44.663Z,0.00
2019-03-21T04:53:53.410Z,0.10
2019-03-21T04:58:58.740Z,0.00
2019-03-21T05:04:26.706Z,0.00
2019-03-21T05:09:32.246Z,0.00
2019-03-21T05:14:38.848Z,-0.10
2019-03-21T05:19:46.216Z,0.00
2019-03-21T05:24:52.344Z,-0.10
2019-03-21T05:30:31.431Z,-0.20
2019-03-21T05:35:38.100Z,-0.20
2019-03-21T05:40:44.074Z,-0.20
2019-03-21T05:45:51.230Z,-0.10
2019-03-21T05:51:01.641Z,-0.10
2019-03-21T05:56:08.736Z,-0.10
2019-03-21T06:01:35.834Z,0.00
2019-03-21T06:07:25.797Z,0.00
2019-03-21T06:12:33.343Z,0.30
2019-03-21T06:17:41.723Z,0.60
2019-03-21T06:23:19.622Z,0.90
2019-03-21T06:28:26.672Z,1.20
2019-03-21T06:33:32.491Z,1.60
2019-03-21T06:38:42.279Z,1.90
2019-03-21T06:43:48.778Z,2.30
2019-03-21T06:49:07.859Z,2.60
2019-03-21T06:54:26.403Z,3.10
2019-03-21T06:59:32.159Z,3.40
2019-03-21T07:04:37.880Z,3.80
2019-03-21T07:10:16.625Z,4.30
2019-03-21T07:15:24.134Z,4.90
2019-03-21T07:20:29.628Z,5.30
2019-03-21T07:25:35.856Z,5.70
2019-03-21T07:30:43.343Z,6.10
2019-03-21T07:35:49.600Z,6.40
2019-03-21T07:40:56.162Z,6.80
2019-03-21T07:46:02.642Z,7.20
2019-03-21T07:51:09.365Z,7.50
2019-03-21T07:56:15.984Z,7.80
2019-03-21T08:01:22.618Z,8.20
2019-03-21T08:06:29.356Z,8.40
2019-03-21T08:11:35.211Z,9.00
2019-03-21T08:16:42.053Z,9.40
2019-03-21T08:21:48.774Z,9.80
2019-03-21T08:26:55.576Z,10.10
2019-03-21T08:32:02.361Z,10.30
2019-03-21T08:37:09.021Z,10.60
2019-03-21T08:42:15.504Z,11.00
2019-03-21T08:47:22.207Z,11.30
2019-03-21T08:52:28.565Z,11.60
2019-03-21T08:57:34.263Z,11.90
2019-03-21T09:02:41.142Z,12.10
2019-03-21T09:07:47.874Z,12.40
2019-03-21T09:12:54.633Z,12.30
2019-03-21T09:18:01.149Z,12.50
2019-03-21T09:23:07.302Z,12.40
2019-03-21T09:28:14.312Z,13.00
2019-03-21T09:33:22.323Z,13.00
2019-03-21T09:38:29.101Z,13.50
2019-03-21T09:43:34.975Z,13.50
2019-03-21T09:48:41.565Z,13.70
2019-03-21T09:53:48.484Z,13.90
2019-03-21T09:58:55.375Z,14.30
2019-03-21T10:04:02.088Z,13.90
2019-03-21T10:09:09.621Z,13.80
2019-03-21T10:14:15.850Z,14.00
2019-03-21T10:19:22.067Z,13.70
2019-03-21T10:24:28.252Z,14.40
2019-03-21T10:29:34.099Z,14.50
2019-03-21T10:34:39.847Z,14.80
2019-03-21T10:39:46.433Z,14.70
2019-03-21T10:44:53.124Z,14.90
2019-03-21T10:50:00.906Z,14.70
2019-03-21T10:55:08.099Z,15.00
2019-03-21T11:00:15.242Z,15.10
2019-03-21T11:05:23.228Z,15.30
2019-03-21T11:10:30.052Z,15.20
2019-03-21T11:15:36.117Z,15.40
2019-03-21T11:20:42.759Z,15.50
2019-03-21T11:25:49.580Z,15.00
2019-03-21T11:30:56.378Z,15.50
2019-03-21T11:36:03.156Z,15.50
2019-03-21T11:41:09.439Z,15.10
2019-03-21T11:46:15.692Z,15.50
2019-03-21T11:51:22.306Z,15.50
2019-03-21T11:56:34.055Z,15.80
2019-03-21T12:01:41.994Z,15.90
2019-03-21T12:06:48.584Z,16.00
2019-03-21T12:11:55.434Z,16.20
2019-03-21T12:17:02.308Z,16.20
2019-03-21T12:22:09.042Z,16.10
2019-03-21T12:27:15.760Z,16.30
2019-03-21T12:32:24.056Z,16.30
2019-03-21T12:37:29.791Z,16.40
2019-03-21T12:42:35.543Z,16.50
2019-03-21T12:47:41.652Z,16.60
2019-03-21T12:52:49.861Z,16.30
2019-03-21T12:57:56.467Z,16.30
2019-03-21T13:03:03.256Z,16.60
2019-03-21T13:08:09.907Z,16.40
2019-03-21T13:13:16.656Z,16.50
2019-03-21T13:18:23.148Z,16.50
2019-03-21T13:23:29.875Z,16.70
2019-03-21T13:28:35.925Z,16.80
2019-03-21T13:33:41.638Z,17.00
2019-03-21T13:38:47.647Z,16.90
2019-03-21T13:43:54.327Z,17.00
2019-03-21T13:49:00.875Z,17.10
2019-03-21T13:54:08.746Z,16.30
2019-03-21T13:59:15.423Z,16.50
2019-03-21T14:04:21.864Z,16.80
2019-03-21T14:09:29.833Z,17.00
2019-03-21T14:14:37.492Z,16.70
2019-03-21T14:19:45.459Z,16.50
2019-03-21T14:24:51.994Z,16.50
2019-03-21T14:30:01.461Z,16.60
2019-03-21T14:35:08.696Z,16.50
2019-03-21T14:40:16.827Z,16.50
2019-03-21T14:45:23.355Z,16.70
2019-03-21T14:50:29.667Z,16.10
2019-03-21T14:55:46.868Z,16.50
2019-03-21T15:00:43.855Z,15.90
2019-03-21T15:05:52.276Z,16.20
2019-03-21T15:10:58.902Z,15.70
2019-03-21T15:16:05.673Z,15.90
2019-03-21T15:21:12.682Z,15.90
2019-03-21T15:26:19.354Z,16.20
2019-03-21T15:31:26.098Z,16.00
2019-03-21T15:36:31.941Z,15.80
2019-03-21T15:41:39.026Z,15.80
2019-03-21T15:46:45.606Z,15.40
2019-03-21T15:51:52.281Z,15.20
2019-03-21T15:56:58.634Z,15.30
2019-03-21T16:02:05.279Z,15.20
2019-03-21T16:07:11.626Z,15.20
2019-03-21T16:12:18.392Z,15.10
2019-03-21T16:17:25.080Z,14.90
2019-03-21T16:22:31.113Z,15.20
2019-03-21T16:27:38.541Z,15.10
2019-03-21T16:32:45.522Z,14.60
2019-03-21T16:37:52.315Z,14.40
2019-03-21T16:42:59.098Z,14.40
2019-03-21T16:48:09.243Z,14.30
2019-03-21T16:53:15.159Z,14.00
2019-03-21T16:58:21.474Z,13.70
2019-03-21T17:03:28.439Z,13.80
2019-03-21T17:08:34.301Z,13.70
2019-03-21T17:13:41.216Z,13.60
2019-03-21T17:18:48.158Z,13.40
2019-03-21T17:23:54.872Z,13.20
2019-03-21T17:29:01.709Z,13.00
2019-03-21T17:34:08.541Z,12.70
2019-03-21T17:39:15.380Z,12.40
2019-03-21T17:44:22.070Z,12.20
2019-03-21T17:49:30.035Z,11.90
2019-03-21T17:54:41.347Z,11.60
2019-03-21T17:59:45.293Z,11.40
2019-03-21T18:04:52.659Z,11.10
2019-03-21T18:09:59.554Z,10.80
2019-03-21T18:15:08.076Z,10.60
2019-03-21T18:20:14.882Z,10.40
2019-03-21T18:25:21.761Z,10.10
2019-03-21T18:30:28.656Z,9.90
2019-03-21T18:35:34.656Z,9.70
2019-03-21T18:41:00.035Z,9.50
2019-03-21T18:46:08.130Z,9.30
2019-03-21T18:51:14.931Z,9.10
2019-03-21T18:56:22.352Z,9.00
2019-03-21T19:01:29.109Z,8.80
2019-03-21T19:06:34.948Z,8.60
2019-03-21T19:11:41.175Z,8.50
2019-03-21T19:16:47.842Z,8.40
2019-03-21T19:21:54.622Z,8.30
2019-03-21T19:27:01.543Z,8.10
2019-03-21T19:32:08.413Z,7.90
2019-03-21T19:37:15.218Z,7.80
2019-03-21T19:42:22.131Z,7.60
2019-03-21T19:47:30.713Z,7.50
2019-03-21T19:52:39.590Z,7.40
2019-03-21T19:57:46.636Z,7.30
2019-03-21T20:02:53.593Z,7.10
2019-03-21T20:08:00.553Z,7.00
2019-03-21T20:13:07.068Z,6.90
2019-03-21T20:18:13.744Z,6.80
2019-03-21T20:23:20.307Z,6.70
2019-03-21T20:28:26.872Z,6.60
2019-03-21T20:33:32.753Z,6.50
2019-03-21T20:38:40.509Z,6.50
2019-03-21T20:43:49.626Z,6.50
2019-03-21T20:48:55.087Z,6.50
2019-03-21T20:54:02.950Z,6.40
2019-03-21T20:59:09.932Z,6.30
2019-03-21T21:04:16.651Z,6.10
2019-03-21T21:09:44.475Z,6.00
2019-03-21T21:14:51.467Z,5.90
2019-03-21T21:19:58.390Z,5.80
2019-03-21T21:25:07.625Z,5.80
2019-03-21T21:30:37.486Z,5.70
2019-03-21T21:35:47.043Z,5.60
2019-03-21T21:40:54.100Z,5.50
2019-03-21T21:46:01.002Z,5.40
2019-03-21T21:51:07.893Z,5.30
2019-03-21T21:56:17.760Z,5.20
2019-03-21T22:01:23.530Z,5.10
2019-03-21T22:06:30.333Z,5.10
2019-03-21T22:11:36.201Z,5.00
2019-03-21T22:16:42.709Z,4.90
2019-03-21T22:21:49.185Z,4.80
2019-03-21T22:26:55.548Z,4.70
2019-03-21T22:32:04.398Z,4.70
2019-03-21T22:37:11.198Z,4.60
2019-03-21T22:42:17.990Z,4.40
2019-03-21T22:47:24.826Z,4.40
2019-03-21T22:52:30.705Z,4.30
2019-03-21T22:57:37.895Z,4.20
2019-03-21T23:02:44.763Z,4.20
2019-03-21T23:08:13.030Z,4.10
2019-03-21T23:13:19.839Z,4.10
2019-03-21T23:18:26.620Z,4.00
2019-03-21T23:23:32.583Z,4.00
2019-03-21T23:28:39.375Z,3.90
2019-03-21T23:33:45.822Z,3.90
2019-03-21T23:38:52.308Z,3.90
2019-03-21T23:43:58.752Z,3.80
2019-03-21T23:49:05.501Z,3.80
2019-03-21T23:54:12.434Z,3.70
2019-03-21T23:59:19.303Z,3.70
